PILOTS ONLINE: 297    ATC ONLINE: 36

KTOA - Zamperini Field

Location

City Torrance
Country  United States
Latitude 33° 48' 12" N
Longitude 118° 20' 23" W
Elevation 103 ft
Type Small Airport

Runways

11L/29R 5001 ft / 150 ft
11R/29L 3000 ft / 75 ft

Weather

METAR
2014/07/31 02:50
KTOA 310250Z 30010KT 10SM FEW250 22/19 A2990 RMK LAST
TAF
No TAF available

Outbound flights

Inbound flights